Station Historical Data
Daily Summary for January 17, 2018 Units:  Both    English   Metric
« Previous Day
Next Day »
Daily Weekly Monthly Yearly Custom
  High: Low: Average:
Temperature: TemperatureF °F /  -17.8 °C 10.8 °F /  -11.8 °C 15 °F /  -9.4 °C
Dew Point: DewpointF °F /  -17.8 °C 6.9 °F /  -13.9 °C 10.6 °F /  -11.9 °C
Humidity: Humidity% 76% 82%
Wind Speed: WindSpeedMPHmph /  0km/h - 7mph /  11.3km/h
Wind Gust: WindSpeedGustMPHmph /  0km/h - -
Wind- - SW
Pressure: PressureIn in /  0 hPa 30.17 in /  1021.6 hPa -
Precipitation: 0.00 in /  0 mm    
Historical Graphs
 
 
Tabular Data for January 17, 2018
Time Temperature Dew Point Pressure Wind Wind Speed Wind Gust Humidity Rainfall Rate (Hourly)
TemperatureF °F /  -17.8 °C DewpointF °F /  -17.8 °C PressureInin /  0hPa Calm     Humidity% HourlyPrecipInin /  0mm
00:04 15.9 °F /  -8.9 °C 11.1 °F /  -11.6 °C 30.44in /  1030.7hPa WSW 7.0mph /  11.3km/h 15.0mph /  24.1km/h 81% 0.00in /  0mm
00:09 15.9 °F /  -8.9 °C 11.1 °F /  -11.6 °C 30.43in /  1030.4hPa WSW 6.0mph /  9.7km/h 12.0mph /  19.3km/h 81% 0.00in /  0mm
00:19 16.0 °F /  -8.9 °C 11.2 °F /  -11.6 °C 30.43in /  1030.4hPa South 10.0mph /  16.1km/h 14.0mph /  22.5km/h 81% 0.00in /  0mm
00:24 15.9 °F /  -8.9 °C 11.4 °F /  -11.4 °C 30.43in /  1030.4hPa SW 7.0mph /  11.3km/h 15.0mph /  24.1km/h 82% 0.00in /  0mm
00:29 15.8 °F /  -9 °C 11.3 °F /  -11.5 °C 30.43in /  1030.4hPa SW 8.0mph /  12.9km/h 11.0mph /  17.7km/h 82% 0.00in /  0mm
00:34 15.7 °F /  -9.1 °C 11.2 °F /  -11.6 °C 30.43in /  1030.4hPa South 8.0mph /  12.9km/h 15.0mph /  24.1km/h 82% 0.00in /  0mm
00:39 15.6 °F /  -9.1 °C 11.1 °F /  -11.6 °C 30.43in /  1030.4hPa SW 4.0mph /  6.4km/h 11.0mph /  17.7km/h 82% 0.00in /  0mm
00:44 15.5 °F /  -9.2 °C 11.0 °F /  -11.7 °C 30.43in /  1030.4hPa South 3.0mph /  4.8km/h 11.0mph /  17.7km/h 82% 0.00in /  0mm
00:49 15.3 °F /  -9.3 °C 10.8 °F /  -11.8 °C 30.43in /  1030.4hPa SW 4.0mph /  6.4km/h 11.0mph /  17.7km/h 82% 0.00in /  0mm
00:54 15.3 °F /  -9.3 °C 11.1 °F /  -11.6 °C 30.43in /  1030.4hPa SW 5.0mph /  8km/h 12.0mph /  19.3km/h 83% 0.00in /  0mm
00:59 15.1 °F /  -9.4 °C 10.9 °F /  -11.7 °C 30.43in /  1030.4hPa SW 5.0mph /  8km/h 12.0mph /  19.3km/h 83% 0.00in /  0mm
01:04 15.0 °F /  -9.4 °C 10.8 °F /  -11.8 °C 30.43in /  1030.4hPa SW 9.0mph /  14.5km/h 9.0mph /  14.5km/h 83% 0.00in /  0mm
01:14 14.7 °F /  -9.6 °C 10.5 °F /  -11.9 °C 30.43in /  1030.4hPa SW 6.0mph /  9.7km/h 11.0mph /  17.7km/h 83% 0.00in /  0mm
01:19 14.5 °F /  -9.7 °C 10.3 °F /  -12.1 °C 30.43in /  1030.4hPa SW 3.0mph /  4.8km/h 9.0mph /  14.5km/h 83% 0.00in /  0mm
01:24 14.4 °F /  -9.8 °C 10.4 °F /  -12 °C 30.43in /  1030.4hPa SSW 3.0mph /  4.8km/h 11.0mph /  17.7km/h 84% 0.00in /  0mm
01:29 14.4 °F /  -9.8 °C 10.4 °F /  -12 °C 30.43in /  1030.4hPa SSW 4.0mph /  6.4km/h 11.0mph /  17.7km/h 84% 0.00in /  0mm
01:34 14.4 °F /  -9.8 °C 10.4 °F /  -12 °C 30.43in /  1030.4hPa SSW 4.0mph /  6.4km/h 9.0mph /  14.5km/h 84% 0.00in /  0mm
01:39 14.4 °F /  -9.8 °C 10.4 °F /  -12 °C 30.43in /  1030.4hPa SSW 5.0mph /  8km/h 10.0mph /  16.1km/h 84% 0.00in /  0mm
01:44 14.4 °F /  -9.8 °C 10.4 °F /  -12 °C 30.43in /  1030.4hPa WSW 4.0mph /  6.4km/h 10.0mph /  16.1km/h 84% 0.00in /  0mm
01:49 14.4 °F /  -9.8 °C 10.4 °F /  -12 °C 30.43in /  1030.4hPa SSW 4.0mph /  6.4km/h 10.0mph /  16.1km/h 84% 0.00in /  0mm
01:54 14.3 °F /  -9.8 °C 10.4 °F /  -12 °C 30.43in /  1030.4hPa South 6.0mph /  9.7km/h 9.0mph /  14.5km/h 84% 0.00in /  0mm
01:59 14.3 °F /  -9.8 °C 10.4 °F /  -12 °C 30.43in /  1030.4hPa SW 5.0mph /  8km/h 10.0mph /  16.1km/h 84% 0.00in /  0mm
02:04 14.3 °F /  -9.8 °C 10.4 °F /  -12 °C 30.44in /  1030.7hPa WSW 6.0mph /  9.7km/h 12.0mph /  19.3km/h 84% 0.00in /  0mm
02:09 14.3 °F /  -9.8 °C 10.4 °F /  -12 °C 30.43in /  1030.4hPa SW 6.0mph /  9.7km/h 12.0mph /  19.3km/h 84% 0.00in /  0mm
02:14 14.3 °F /  -9.8 °C 10.4 °F /  -12 °C 30.43in /  1030.4hPa SW 5.0mph /  8km/h 11.0mph /  17.7km/h 84% 0.00in /  0mm
02:19 14.2 °F /  -9.9 °C 10.3 °F /  -12.1 °C 30.44in /  1030.7hPa SW 6.0mph /  9.7km/h 10.0mph /  16.1km/h 84% 0.00in /  0mm
02:24 14.1 °F /  -9.9 °C 10.2 °F /  -12.1 °C 30.44in /  1030.7hPa SW 10.0mph /  16.1km/h 10.0mph /  16.1km/h 84% 0.00in /  0mm
02:29 14.1 °F /  -9.9 °C 10.2 °F /  -12.1 °C 30.44in /  1030.7hPa SW 6.0mph /  9.7km/h 10.0mph /  16.1km/h 84% 0.00in /  0mm
02:34 14.0 °F /  -10 °C 10.1 °F /  -12.2 °C 30.44in /  1030.7hPa SW 5.0mph /  8km/h 12.0mph /  19.3km/h 84% 0.00in /  0mm
02:39 13.9 °F /  -10.1 °C 10.0 °F /  -12.2 °C 30.44in /  1030.7hPa SW 5.0mph /  8km/h 14.0mph /  22.5km/h 84% 0.00in /  0mm
02:44 13.8 °F /  -10.1 °C 9.9 °F /  -12.3 °C 30.44in /  1030.7hPa SW 5.0mph /  8km/h 14.0mph /  22.5km/h 84% 0.00in /  0mm
02:49 13.7 °F /  -10.2 °C 9.8 °F /  -12.3 °C 30.44in /  1030.7hPa SW 5.0mph /  8km/h 9.0mph /  14.5km/h 84% 0.00in /  0mm
02:59 13.5 °F /  -10.3 °C 9.6 °F /  -12.4 °C 30.45in /  1031hPa SSW 5.0mph /  8km/h 11.0mph /  17.7km/h 84% 0.00in /  0mm
03:04 13.4 °F /  -10.3 °C 9.5 °F /  -12.5 °C 30.45in /  1031hPa SW 5.0mph /  8km/h 11.0mph /  17.7km/h 84% 0.00in /  0mm
03:09 13.4 °F /  -10.3 °C 9.5 °F /  -12.5 °C 30.45in /  1031hPa South 3.0mph /  4.8km/h 9.0mph /  14.5km/h 84% 0.00in /  0mm
03:14 13.2 °F /  -10.4 °C 9.3 °F /  -12.6 °C 30.45in /  1031hPa SSW 5.0mph /  8km/h 9.0mph /  14.5km/h 84% 0.00in /  0mm
03:24 13.2 °F /  -10.4 °C 9.3 °F /  -12.6 °C 30.45in /  1031hPa SW 4.0mph /  6.4km/h 10.0mph /  16.1km/h 84% 0.00in /  0mm
03:29 13.2 °F /  -10.4 °C 9.3 °F /  -12.6 °C 30.45in /  1031hPa South 6.0mph /  9.7km/h 9.0mph /  14.5km/h 84% 0.00in /  0mm
03:34 13.2 °F /  -10.4 °C 9.3 °F /  -12.6 °C 30.45in /  1031hPa SW 4.0mph /  6.4km/h 9.0mph /  14.5km/h 84% 0.00in /  0mm
03:39 13.2 °F /  -10.4 °C 9.3 °F /  -12.6 °C 30.45in /  1031hPa South 4.0mph /  6.4km/h 8.0mph /  12.9km/h 84% 0.00in /  0mm
03:44 13.1 °F /  -10.5 °C 9.2 °F /  -12.7 °C 30.44in /  1030.7hPa WSW 5.0mph /  8km/h 9.0mph /  14.5km/h 84% 0.00in /  0mm
03:49 13.1 °F /  -10.5 °C 9.2 °F /  -12.7 °C 30.44in /  1030.7hPa SW 4.0mph /  6.4km/h 7.0mph /  11.3km/h 84% 0.00in /  0mm
03:54 13.1 °F /  -10.5 °C 9.4 °F /  -12.6 °C 30.44in /  1030.7hPa SW 4.0mph /  6.4km/h 9.0mph /  14.5km/h 85% 0.00in /  0mm
04:04 13.0 °F /  -10.6 °C 9.1 °F /  -12.7 °C 30.44in /  1030.7hPa SSW 6.0mph /  9.7km/h 13.0mph /  20.9km/h 84% 0.00in /  0mm
04:09 12.9 °F /  -10.6 °C 9.0 °F /  -12.8 °C 30.44in /  1030.7hPa SW 6.0mph /  9.7km/h 13.0mph /  20.9km/h 84% 0.00in /  0mm
04:14 12.8 °F /  -10.7 °C 8.9 °F /  -12.8 °C 30.43in /  1030.4hPa SW 6.0mph /  9.7km/h 13.0mph /  20.9km/h 84% 0.00in /  0mm
04:19 12.8 °F /  -10.7 °C 8.9 °F /  -12.8 °C 30.43in /  1030.4hPa SSW 5.0mph /  8km/h 13.0mph /  20.9km/h 84% 0.00in /  0mm
04:29 12.8 °F /  -10.7 °C 8.9 °F /  -12.8 °C 30.44in /  1030.7hPa SSW 5.0mph /  8km/h 11.0mph /  17.7km/h 84% 0.00in /  0mm
04:34 12.7 °F /  -10.7 °C 8.8 °F /  -12.9 °C 30.44in /  1030.7hPa SSW 8.0mph /  12.9km/h 11.0mph /  17.7km/h 84% 0.00in /  0mm
04:39 12.6 °F /  -10.8 °C 8.7 °F /  -12.9 °C 30.44in /  1030.7hPa SSW 3.0mph /  4.8km/h 8.0mph /  12.9km/h 84% 0.00in /  0mm
04:44 12.5 °F /  -10.8 °C 8.6 °F /  -13 °C 30.44in /  1030.7hPa SSW 6.0mph /  9.7km/h 10.0mph /  16.1km/h 84% 0.00in /  0mm
04:49 12.5 °F /  -10.8 °C 8.6 °F /  -13 °C 30.44in /  1030.7hPa SW 6.0mph /  9.7km/h 11.0mph /  17.7km/h 84% 0.00in /  0mm
04:54 12.5 °F /  -10.8 °C 8.6 °F /  -13 °C 30.44in /  1030.7hPa SSW 4.0mph /  6.4km/h 11.0mph /  17.7km/h 84% 0.00in /  0mm
04:59 12.5 °F /  -10.8 °C 8.6 °F /  -13 °C 30.44in /  1030.7hPa WSW 5.0mph /  8km/h 11.0mph /  17.7km/h 84% 0.00in /  0mm
05:04 12.5 °F /  -10.8 °C 8.6 °F /  -13 °C 30.44in /  1030.7hPa South 7.0mph /  11.3km/h 12.0mph /  19.3km/h 84% 0.00in /  0mm
05:09 12.4 °F /  -10.9 °C 8.7 °F /  -12.9 °C 30.44in /  1030.7hPa SSW 5.0mph /  8km/h 8.0mph /  12.9km/h 85% 0.00in /  0mm
05:14 12.4 °F /  -10.9 °C 8.7 °F /  -12.9 °C 30.44in /  1030.7hPa SW 5.0mph /  8km/h 10.0mph /  16.1km/h 85% 0.00in /  0mm
05:19 12.3 °F /  -10.9 °C 8.7 °F /  -12.9 °C 30.44in /  1030.7hPa SW 5.0mph /  8km/h 11.0mph /  17.7km/h 85% 0.00in /  0mm
05:24 12.4 °F /  -10.9 °C 8.7 °F /  -12.9 °C 30.44in /  1030.7hPa SSW 6.0mph /  9.7km/h 11.0mph /  17.7km/h 85% 0.00in /  0mm
05:29 12.4 °F /  -10.9 °C 8.7 °F /  -12.9 °C 30.44in /  1030.7hPa SSW 4.0mph /  6.4km/h 11.0mph /  17.7km/h 85% 0.00in /  0mm
05:34 12.4 °F /  -10.9 °C 8.7 °F /  -12.9 °C 30.44in /  1030.7hPa WSW 4.0mph /  6.4km/h 11.0mph /  17.7km/h 85% 0.00in /  0mm
05:39 12.3 °F /  -10.9 °C 8.7 °F /  -12.9 °C 30.44in /  1030.7hPa SSW 5.0mph /  8km/h 9.0mph /  14.5km/h 85% 0.00in /  0mm
05:44 12.2 °F /  -11 °C 8.3 °F /  -13.2 °C 30.44in /  1030.7hPa SSW 6.0mph /  9.7km/h 13.0mph /  20.9km/h 84% 0.00in /  0mm
05:49 12.1 °F /  -11.1 °C 8.2 °F /  -13.2 °C 30.44in /  1030.7hPa SSW 7.0mph /  11.3km/h 13.0mph /  20.9km/h 84% 0.00in /  0mm
05:54 12.1 °F /  -11.1 °C 8.2 °F /  -13.2 °C 30.45in /  1031hPa SSW 5.0mph /  8km/h 13.0mph /  20.9km/h 84% 0.00in /  0mm
05:59 11.9 °F /  -11.2 °C 8.0 °F /  -13.3 °C 30.45in /  1031hPa West 10.0mph /  16.1km/h 14.0mph /  22.5km/h 84% 0.00in /  0mm
06:04 11.8 °F /  -11.2 °C 8.2 °F /  -13.2 °C 30.44in /  1030.7hPa WSW 10.0mph /  16.1km/h 10.0mph /  16.1km/h 85% 0.00in /  0mm
06:09 11.7 °F /  -11.3 °C 8.1 °F /  -13.3 °C 30.44in /  1030.7hPa SSW 4.0mph /  6.4km/h 15.0mph /  24.1km/h 85% 0.00in /  0mm
06:14 11.6 °F /  -11.3 °C 8.0 °F /  -13.3 °C 30.45in /  1031hPa South 3.0mph /  4.8km/h 12.0mph /  19.3km/h 85% 0.00in /  0mm
06:19 11.6 °F /  -11.3 °C 7.7 °F /  -13.5 °C 30.45in /  1031hPa South 5.0mph /  8km/h 11.0mph /  17.7km/h 84% 0.00in /  0mm
06:34 11.4 °F /  -11.4 °C 7.5 °F /  -13.6 °C 30.44in /  1030.7hPa SW 6.0mph /  9.7km/h 11.0mph /  17.7km/h 84% 0.00in /  0mm
06:39 11.3 °F /  -11.5 °C 7.7 °F /  -13.5 °C 30.45in /  1031hPa SW 5.0mph /  8km/h 13.0mph /  20.9km/h 85% 0.00in /  0mm
06:44 11.2 °F /  -11.6 °C 7.6 °F /  -13.6 °C 30.45in /  1031hPa SW 6.0mph /  9.7km/h 13.0mph /  20.9km/h 85% 0.00in /  0mm
06:59 11.1 °F /  -11.6 °C 7.2 °F /  -13.8 °C 30.44in /  1030.7hPa SW 5.0mph /  8km/h 12.0mph /  19.3km/h 84% 0.00in /  0mm
07:09 11.0 °F /  -11.7 °C 7.1 °F /  -13.8 °C 30.45in /  1031hPa SSW 5.0mph /  8km/h 13.0mph /  20.9km/h 84% 0.00in /  0mm
07:14 10.9 °F /  -11.7 °C 7.0 °F /  -13.9 °C 30.44in /  1030.7hPa South 3.0mph /  4.8km/h 10.0mph /  16.1km/h 84% 0.00in /  0mm
07:19 10.8 °F /  -11.8 °C 6.9 °F /  -13.9 °C 30.45in /  1031hPa SW 5.0mph /  8km/h 13.0mph /  20.9km/h 84% 0.00in /  0mm
07:24 10.8 °F /  -11.8 °C 6.9 °F /  -13.9 °C 30.45in /  1031hPa WSW 4.0mph /  6.4km/h 11.0mph /  17.7km/h 84% 0.00in /  0mm
07:29 10.8 °F /  -11.8 °C 6.9 °F /  -13.9 °C 30.44in /  1030.7hPa SSW 5.0mph /  8km/h 11.0mph /  17.7km/h 84% 0.00in /  0mm
07:34 10.8 °F /  -11.8 °C 6.9 °F /  -13.9 °C 30.44in /  1030.7hPa SSW 5.0mph /  8km/h 10.0mph /  16.1km/h 84% 0.00in /  0mm
07:44 10.8 °F /  -11.8 °C 6.9 °F /  -13.9 °C 30.44in /  1030.7hPa SSW 3.0mph /  4.8km/h 11.0mph /  17.7km/h 84% 0.00in /  0mm
07:49 10.8 °F /  -11.8 °C 6.9 °F /  -13.9 °C 30.44in /  1030.7hPa SW 6.0mph /  9.7km/h 11.0mph /  17.7km/h 84% 0.00in /  0mm
07:54 10.8 °F /  -11.8 °C 6.9 °F /  -13.9 °C 30.44in /  1030.7hPa SSW 5.0mph /  8km/h 13.0mph /  20.9km/h 84% 0.00in /  0mm
07:59 10.8 °F /  -11.8 °C 6.9 °F /  -13.9 °C 30.44in /  1030.7hPa SSW 5.0mph /  8km/h 8.0mph /  12.9km/h 84% 0.00in /  0mm
08:04 11.0 °F /  -11.7 °C 7.1 °F /  -13.8 °C 30.44in /  1030.7hPa SSW 4.0mph /  6.4km/h 9.0mph /  14.5km/h 84% 0.00in /  0mm
08:09 10.9 °F /  -11.7 °C 7.0 °F /  -13.9 °C 30.44in /  1030.7hPa SSW 5.0mph /  8km/h 9.0mph /  14.5km/h 84% 0.00in /  0mm
08:14 10.9 °F /  -11.7 °C 7.0 °F /  -13.9 °C 30.44in /  1030.7hPa SSW 5.0mph /  8km/h 12.0mph /  19.3km/h 84% 0.00in /  0mm
08:19 11.0 °F /  -11.7 °C 7.1 °F /  -13.8 °C 30.45in /  1031hPa SSE 6.0mph /  9.7km/h 9.0mph /  14.5km/h 84% 0.00in /  0mm
08:24 11.0 °F /  -11.7 °C 7.1 °F /  -13.8 °C 30.44in /  1030.7hPa SW 6.0mph /  9.7km/h 9.0mph /  14.5km/h 84% 0.00in /  0mm
08:29 11.1 °F /  -11.6 °C 7.2 °F /  -13.8 °C 30.44in /  1030.7hPa SSW 3.0mph /  4.8km/h 7.0mph /  11.3km/h 84% 0.00in /  0mm
08:34 11.3 °F /  -11.5 °C 7.7 °F /  -13.5 °C 30.44in /  1030.7hPa SSW 4.0mph /  6.4km/h 10.0mph /  16.1km/h 85% 0.00in /  0mm
08:39 11.4 °F /  -11.4 °C 7.8 °F /  -13.4 °C 30.44in /  1030.7hPa SSW 5.0mph /  8km/h 10.0mph /  16.1km/h 85% 0.00in /  0mm
08:44 11.5 °F /  -11.4 °C 7.6 °F /  -13.6 °C 30.44in /  1030.7hPa SSW 3.0mph /  4.8km/h 9.0mph /  14.5km/h 84% 0.00in /  0mm
08:49 11.5 °F /  -11.4 °C 7.6 °F /  -13.6 °C 30.44in /  1030.7hPa South 4.0mph /  6.4km/h 9.0mph /  14.5km/h 84% 0.00in /  0mm
08:59 11.6 °F /  -11.3 °C 7.7 °F /  -13.5 °C 30.44in /  1030.7hPa SW 9.0mph /  14.5km/h 10.0mph /  16.1km/h 84% 0.00in /  0mm
09:04 11.7 °F /  -11.3 °C 7.8 °F /  -13.4 °C 30.44in /  1030.7hPa SW 2.0mph /  3.2km/h 12.0mph /  19.3km/h 84% 0.00in /  0mm
09:09 11.7 °F /  -11.3 °C 7.8 °F /  -13.4 °C 30.44in /  1030.7hPa SSW 5.0mph /  8km/h 12.0mph /  19.3km/h 84% 0.00in /  0mm
09:14 11.9 °F /  -11.2 °C 8.0 °F /  -13.3 °C 30.44in /  1030.7hPa SSW 4.0mph /  6.4km/h 11.0mph /  17.7km/h 84% 0.00in /  0mm
09:19 12.1 °F /  -11.1 °C 8.2 °F /  -13.2 °C 30.45in /  1031hPa SSE 5.0mph /  8km/h 9.0mph /  14.5km/h 84% 0.00in /  0mm
09:24 12.1 °F /  -11.1 °C 8.2 °F /  -13.2 °C 30.45in /  1031hPa SW 5.0mph /  8km/h 11.0mph /  17.7km/h 84% 0.00in /  0mm
09:29 12.3 °F /  -10.9 °C 8.4 °F /  -13.1 °C 30.45in /  1031hPa SSW 6.0mph /  9.7km/h 8.0mph /  12.9km/h 84% 0.00in /  0mm
09:34 12.4 °F /  -10.9 °C 8.5 °F /  -13.1 °C 30.45in /  1031hPa SSW 5.0mph /  8km/h 11.0mph /  17.7km/h 84% 0.00in /  0mm
09:39 12.5 °F /  -10.8 °C 8.6 °F /  -13 °C 30.45in /  1031hPa SSW 5.0mph /  8km/h 11.0mph /  17.7km/h 84% 0.00in /  0mm
09:44 12.7 °F /  -10.7 °C 8.8 °F /  -12.9 °C 30.45in /  1031hPa SSW 5.0mph /  8km/h 10.0mph /  16.1km/h 84% 0.00in /  0mm
09:49 12.8 °F /  -10.7 °C 8.9 °F /  -12.8 °C 30.45in /  1031hPa SW 6.0mph /  9.7km/h 14.0mph /  22.5km/h 84% 0.00in /  0mm
09:54 13.0 °F /  -10.6 °C 9.1 °F /  -12.7 °C 30.45in /  1031hPa WSW 3.0mph /  4.8km/h 10.0mph /  16.1km/h 84% 0.00in /  0mm
09:59 13.2 °F /  -10.4 °C 9.3 °F /  -12.6 °C 30.45in /  1031hPa SW 6.0mph /  9.7km/h 11.0mph /  17.7km/h 84% 0.00in /  0mm
10:04 13.2 °F /  -10.4 °C 9.3 °F /  -12.6 °C 30.45in /  1031hPa South 2.0mph /  3.2km/h 11.0mph /  17.7km/h 84% 0.00in /  0mm
10:09 13.6 °F /  -10.2 °C 9.7 °F /  -12.4 °C 30.45in /  1031hPa SSW 5.0mph /  8km/h 11.0mph /  17.7km/h 84% 0.00in /  0mm
10:14 14.0 °F /  -10 °C 10.1 °F /  -12.2 °C 30.45in /  1031hPa SW 4.0mph /  6.4km/h 11.0mph /  17.7km/h 84% 0.00in /  0mm
10:19 14.2 °F /  -9.9 °C 10.0 °F /  -12.2 °C 30.45in /  1031hPa SW 5.0mph /  8km/h 12.0mph /  19.3km/h 83% 0.00in /  0mm
10:24 14.5 °F /  -9.7 °C 10.3 °F /  -12.1 °C 30.45in /  1031hPa SW 6.0mph /  9.7km/h 12.0mph /  19.3km/h 83% 0.00in /  0mm
10:29 14.9 °F /  -9.5 °C 10.7 °F /  -11.8 °C 30.45in /  1031hPa SW 6.0mph /  9.7km/h 12.0mph /  19.3km/h 83% 0.00in /  0mm
10:34 15.4 °F /  -9.2 °C 11.2 °F /  -11.6 °C 30.45in /  1031hPa SW 6.0mph /  9.7km/h 13.0mph /  20.9km/h 83% 0.00in /  0mm
10:39 16.0 °F /  -8.9 °C 11.5 °F /  -11.4 °C 30.45in /  1031hPa SW 7.0mph /  11.3km/h 14.0mph /  22.5km/h 82% 0.00in /  0mm
10:44 15.8 °F /  -9 °C 11.3 °F /  -11.5 °C 30.45in /  1031hPa SW 7.0mph /  11.3km/h 16.0mph /  25.7km/h 82% 0.00in /  0mm
10:54 16.3 °F /  -8.7 °C 11.8 °F /  -11.2 °C 30.45in /  1031hPa SW 7.0mph /  11.3km/h 12.0mph /  19.3km/h 82% 0.00in /  0mm
10:59 16.4 °F /  -8.7 °C 11.9 °F /  -11.2 °C 30.45in /  1031hPa SW 7.0mph /  11.3km/h 12.0mph /  19.3km/h 82% 0.00in /  0mm
11:04 16.4 °F /  -8.7 °C 11.9 °F /  -11.2 °C 30.45in /  1031hPa WSW 6.0mph /  9.7km/h 16.0mph /  25.7km/h 82% 0.00in /  0mm
11:09 16.1 °F /  -8.8 °C 11.3 °F /  -11.5 °C 30.45in /  1031hPa SW 8.0mph /  12.9km/h 16.0mph /  25.7km/h 81% 0.00in /  0mm
11:14 15.9 °F /  -8.9 °C 11.1 °F /  -11.6 °C 30.45in /  1031hPa South 5.0mph /  8km/h 16.0mph /  25.7km/h 81% 0.00in /  0mm
11:24 15.7 °F /  -9.1 °C 10.9 °F /  -11.7 °C 30.44in /  1030.7hPa SW 7.0mph /  11.3km/h 16.0mph /  25.7km/h 81% 0.00in /  0mm
11:34 15.3 °F /  -9.3 °C 10.8 °F /  -11.8 °C 30.44in /  1030.7hPa SW 8.0mph /  12.9km/h 15.0mph /  24.1km/h 82% 0.00in /  0mm
11:39 15.2 °F /  -9.3 °C 10.7 °F /  -11.8 °C 30.44in /  1030.7hPa SW 8.0mph /  12.9km/h 14.0mph /  22.5km/h 82% 0.00in /  0mm
11:44 15.3 °F /  -9.3 °C 10.8 °F /  -11.8 °C 30.44in /  1030.7hPa SSW 4.0mph /  6.4km/h 13.0mph /  20.9km/h 82% 0.00in /  0mm
11:49 15.4 °F /  -9.2 °C 10.9 °F /  -11.7 °C 30.43in /  1030.4hPa SW 5.0mph /  8km/h 13.0mph /  20.9km/h 82% 0.00in /  0mm
11:54 15.2 °F /  -9.3 °C 10.7 °F /  -11.8 °C 30.43in /  1030.4hPa SSW 5.0mph /  8km/h 17.0mph /  27.4km/h 82% 0.00in /  0mm
11:59 15.2 °F /  -9.3 °C 11.0 °F /  -11.7 °C 30.42in /  1030hPa SW 7.0mph /  11.3km/h 17.0mph /  27.4km/h 83% 0.00in /  0mm
12:09 15.4 °F /  -9.2 °C 11.2 °F /  -11.6 °C 30.42in /  1030hPa SW 6.0mph /  9.7km/h 13.0mph /  20.9km/h 83% 0.00in /  0mm
12:14 15.6 °F /  -9.1 °C 11.4 °F /  -11.4 °C 30.41in /  1029.7hPa SW 11.0mph /  17.7km/h 13.0mph /  20.9km/h 83% 0.00in /  0mm
12:19 16.0 °F /  -8.9 °C 12.0 °F /  -11.1 °C 30.41in /  1029.7hPa SW 7.0mph /  11.3km/h 13.0mph /  20.9km/h 84% 0.00in /  0mm
12:24 16.5 °F /  -8.6 °C 12.5 °F /  -10.8 °C 30.40in /  1029.3hPa SW 6.0mph /  9.7km/h 12.0mph /  19.3km/h 84% 0.00in /  0mm
12:29 17.2 °F /  -8.2 °C 13.2 °F /  -10.4 °C 30.40in /  1029.3hPa SW 10.0mph /  16.1km/h 18.0mph /  29km/h 84% 0.00in /  0mm
12:34 17.4 °F /  -8.1 °C 13.1 °F /  -10.5 °C 30.40in /  1029.3hPa SW 9.0mph /  14.5km/h 18.0mph /  29km/h 83% 0.00in /  0mm
12:39 17.8 °F /  -7.9 °C 13.5 °F /  -10.3 °C 30.39in /  1029hPa WSW 8.0mph /  12.9km/h 14.0mph /  22.5km/h 83% 0.00in /  0mm
12:49 17.9 °F /  -7.8 °C 13.3 °F /  -10.4 °C 30.39in /  1029hPa South 5.0mph /  8km/h 14.0mph /  22.5km/h 82% 0.00in /  0mm
12:54 17.7 °F /  -7.9 °C 12.9 °F /  -10.6 °C 30.39in /  1029hPa WSW 9.0mph /  14.5km/h 16.0mph /  25.7km/h 81% 0.00in /  0mm
13:09 16.8 °F /  -8.4 °C 12.0 °F /  -11.1 °C 30.39in /  1029hPa SW 9.0mph /  14.5km/h 18.0mph /  29km/h 81% 0.00in /  0mm
13:14 16.7 °F /  -8.5 °C 12.2 °F /  -11 °C 30.39in /  1029hPa SW 9.0mph /  14.5km/h 18.0mph /  29km/h 82% 0.00in /  0mm
13:19 16.7 °F /  -8.5 °C 12.4 °F /  -10.9 °C 30.39in /  1029hPa SW 9.0mph /  14.5km/h 15.0mph /  24.1km/h 83% 0.00in /  0mm
13:24 16.9 °F /  -8.4 °C 12.6 °F /  -10.8 °C 30.38in /  1028.7hPa South 8.0mph /  12.9km/h 15.0mph /  24.1km/h 83% 0.00in /  0mm
13:29 17.1 °F /  -8.3 °C 12.8 °F /  -10.7 °C 30.38in /  1028.7hPa SW 8.0mph /  12.9km/h 17.0mph /  27.4km/h 83% 0.00in /  0mm
13:34 17.3 °F /  -8.2 °C 13.0 °F /  -10.6 °C 30.38in /  1028.7hPa WSW 12.0mph /  19.3km/h 14.0mph /  22.5km/h 83% 0.00in /  0mm
13:39 17.4 °F /  -8.1 °C 13.1 °F /  -10.5 °C 30.38in /  1028.7hPa SW 8.0mph /  12.9km/h 16.0mph /  25.7km/h 83% 0.00in /  0mm
13:44 17.4 °F /  -8.1 °C 13.1 °F /  -10.5 °C 30.38in /  1028.7hPa SW 8.0mph /  12.9km/h 16.0mph /  25.7km/h 83% 0.00in /  0mm
13:49 17.2 °F /  -8.2 °C 12.9 °F /  -10.6 °C 30.38in /  1028.7hPa WSW 8.0mph /  12.9km/h 20.0mph /  32.2km/h 83% 0.00in /  0mm
13:54 17.0 °F /  -8.3 °C 12.7 °F /  -10.7 °C 30.38in /  1028.7hPa WSW 7.0mph /  11.3km/h 19.0mph /  30.6km/h 83% 0.00in /  0mm
13:59 17.2 °F /  -8.2 °C 12.9 °F /  -10.6 °C 30.37in /  1028.3hPa SW 10.0mph /  16.1km/h 17.0mph /  27.4km/h 83% 0.00in /  0mm
14:04 17.3 °F /  -8.2 °C 13.0 °F /  -10.6 °C 30.37in /  1028.3hPa WSW 6.0mph /  9.7km/h 15.0mph /  24.1km/h 83% 0.00in /  0mm
14:09 17.3 °F /  -8.2 °C 13.0 °F /  -10.6 °C 30.38in /  1028.7hPa South 9.0mph /  14.5km/h 16.0mph /  25.7km/h 83% 0.00in /  0mm
14:14 17.4 °F /  -8.1 °C 13.1 °F /  -10.5 °C 30.37in /  1028.3hPa SW 8.0mph /  12.9km/h 16.0mph /  25.7km/h 83% 0.00in /  0mm
14:24 17.5 °F /  -8.1 °C 13.2 °F /  -10.4 °C 30.38in /  1028.7hPa SW 8.0mph /  12.9km/h 17.0mph /  27.4km/h 83% 0.00in /  0mm
14:29 17.5 °F /  -8.1 °C 13.2 °F /  -10.4 °C 30.37in /  1028.3hPa SSW 7.0mph /  11.3km/h 17.0mph /  27.4km/h 83% 0.00in /  0mm
14:39 17.1 °F /  -8.3 °C 12.8 °F /  -10.7 °C 30.37in /  1028.3hPa South 8.0mph /  12.9km/h 19.0mph /  30.6km/h 83% 0.00in /  0mm
14:44 17.0 °F /  -8.3 °C 12.7 °F /  -10.7 °C 30.37in /  1028.3hPa WSW 9.0mph /  14.5km/h 17.0mph /  27.4km/h 83% 0.00in /  0mm
14:49 17.1 °F /  -8.3 °C 13.1 °F /  -10.5 °C 30.36in /  1028hPa SW 8.0mph /  12.9km/h 17.0mph /  27.4km/h 84% 0.00in /  0mm
14:54 17.0 °F /  -8.3 °C 13.0 °F /  -10.6 °C 30.37in /  1028.3hPa SW 8.0mph /  12.9km/h 17.0mph /  27.4km/h 84% 0.00in /  0mm
14:59 17.0 °F /  -8.3 °C 13.0 °F /  -10.6 °C 30.36in /  1028hPa SW 9.0mph /  14.5km/h 19.0mph /  30.6km/h 84% 0.00in /  0mm
15:04 16.9 °F /  -8.4 °C 12.9 °F /  -10.6 °C 30.36in /  1028hPa SW 9.0mph /  14.5km/h 19.0mph /  30.6km/h 84% 0.00in /  0mm
15:14 17.1 °F /  -8.3 °C 13.1 °F /  -10.5 °C 30.37in /  1028.3hPa SW 12.0mph /  19.3km/h 17.0mph /  27.4km/h 84% 0.00in /  0mm
15:19 17.1 °F /  -8.3 °C 13.1 °F /  -10.5 °C 30.36in /  1028hPa SW 13.0mph /  20.9km/h 15.0mph /  24.1km/h 84% 0.00in /  0mm
15:24 17.2 °F /  -8.2 °C 13.2 °F /  -10.4 °C 30.36in /  1028hPa SW 8.0mph /  12.9km/h 15.0mph /  24.1km/h 84% 0.00in /  0mm
15:44 17.3 °F /  -8.2 °C 13.3 °F /  -10.4 °C 30.36in /  1028hPa WSW 10.0mph /  16.1km/h 16.0mph /  25.7km/h 84% 0.00in /  0mm
15:49 17.3 °F /  -8.2 °C 13.3 °F /  -10.4 °C 30.35in /  1027.7hPa WSW 7.0mph /  11.3km/h 19.0mph /  30.6km/h 84% 0.00in /  0mm
15:54 17.3 °F /  -8.2 °C 13.3 °F /  -10.4 °C 30.35in /  1027.7hPa SW 9.0mph /  14.5km/h 19.0mph /  30.6km/h 84% 0.00in /  0mm
16:00 17.2 °F /  -8.2 °C 13.2 °F /  -10.4 °C 30.35in /  1027.7hPa SW 5.0mph /  8km/h 16.0mph /  25.7km/h 84% 0.00in /  0mm
16:05 17.2 °F /  -8.2 °C 13.2 °F /  -10.4 °C 30.35in /  1027.7hPa SW 8.0mph /  12.9km/h 17.0mph /  27.4km/h 84% 0.00in /  0mm
16:10 17.1 °F /  -8.3 °C 13.1 °F /  -10.5 °C 30.35in /  1027.7hPa SW 8.0mph /  12.9km/h 18.0mph /  29km/h 84% 0.00in /  0mm
16:19 17.0 °F /  -8.3 °C 13.0 °F /  -10.6 °C 30.35in /  1027.7hPa SSW 11.0mph /  17.7km/h 14.0mph /  22.5km/h 84% 0.00in /  0mm
16:24 17.0 °F /  -8.3 °C 13.0 °F /  -10.6 °C 30.34in /  1027.3hPa SW 7.0mph /  11.3km/h 14.0mph /  22.5km/h 84% 0.00in /  0mm
16:29 17.0 °F /  -8.3 °C 13.0 °F /  -10.6 °C 30.34in /  1027.3hPa SSW 6.0mph /  9.7km/h 19.0mph /  30.6km/h 84% 0.00in /  0mm
16:39 16.9 °F /  -8.4 °C 12.9 °F /  -10.6 °C 30.34in /  1027.3hPa South 9.0mph /  14.5km/h 17.0mph /  27.4km/h 84% 0.00in /  0mm
16:44 16.9 °F /  -8.4 °C 12.9 °F /  -10.6 °C 30.33in /  1027hPa WSW 8.0mph /  12.9km/h 17.0mph /  27.4km/h 84% 0.00in /  0mm
16:49 16.9 °F /  -8.4 °C 12.9 °F /  -10.6 °C 30.33in /  1027hPa SW 9.0mph /  14.5km/h 18.0mph /  29km/h 84% 0.00in /  0mm
16:54 16.9 °F /  -8.4 °C 12.9 °F /  -10.6 °C 30.34in /  1027.3hPa SW 5.0mph /  8km/h 15.0mph /  24.1km/h 84% 0.00in /  0mm
16:59 16.9 °F /  -8.4 °C 13.2 °F /  -10.4 °C 30.33in /  1027hPa SW 7.0mph /  11.3km/h 15.0mph /  24.1km/h 85% 0.00in /  0mm
17:04 16.9 °F /  -8.4 °C 12.9 °F /  -10.6 °C 30.33in /  1027hPa SW 8.0mph /  12.9km/h 17.0mph /  27.4km/h 84% 0.00in /  0mm
17:09 16.9 °F /  -8.4 °C 12.9 °F /  -10.6 °C 30.33in /  1027hPa SW 8.0mph /  12.9km/h 17.0mph /  27.4km/h 84% 0.00in /  0mm
17:14 17.1 °F /  -8.3 °C 13.1 °F /  -10.5 °C 30.33in /  1027hPa SW 8.0mph /  12.9km/h 16.0mph /  25.7km/h 84% 0.00in /  0mm
17:19 17.1 °F /  -8.3 °C 13.1 °F /  -10.5 °C 30.33in /  1027hPa SW 9.0mph /  14.5km/h 18.0mph /  29km/h 84% 0.00in /  0mm
17:24 17.2 °F /  -8.2 °C 13.2 °F /  -10.4 °C 30.33in /  1027hPa SW 10.0mph /  16.1km/h 18.0mph /  29km/h 84% 0.00in /  0mm
17:34 17.3 °F /  -8.2 °C 13.3 °F /  -10.4 °C 30.33in /  1027hPa SW 7.0mph /  11.3km/h 14.0mph /  22.5km/h 84% 0.00in /  0mm
17:39 17.3 °F /  -8.2 °C 13.3 °F /  -10.4 °C 30.32in /  1026.6hPa SW 9.0mph /  14.5km/h 18.0mph /  29km/h 84% 0.00in /  0mm
17:44 17.4 °F /  -8.1 °C 13.4 °F /  -10.3 °C 30.32in /  1026.6hPa SW 8.0mph /  12.9km/h 19.0mph /  30.6km/h 84% 0.00in /  0mm
17:49 17.5 °F /  -8.1 °C 13.5 °F /  -10.3 °C 30.33in /  1027hPa WSW 12.0mph /  19.3km/h 19.0mph /  30.6km/h 84% 0.00in /  0mm
17:54 17.6 °F /  -8 °C 13.6 °F /  -10.2 °C 30.32in /  1026.6hPa SW 9.0mph /  14.5km/h 16.0mph /  25.7km/h 84% 0.00in /  0mm
17:59 17.6 °F /  -8 °C 13.6 °F /  -10.2 °C 30.32in /  1026.6hPa WSW 13.0mph /  20.9km/h 17.0mph /  27.4km/h 84% 0.00in /  0mm
18:04 17.6 °F /  -8 °C 13.6 °F /  -10.2 °C 30.31in /  1026.3hPa SW 15.0mph /  24.1km/h 20.0mph /  32.2km/h 84% 0.00in /  0mm
18:09 17.5 °F /  -8.1 °C 13.5 °F /  -10.3 °C 30.31in /  1026.3hPa SW 10.0mph /  16.1km/h 20.0mph /  32.2km/h 84% 0.00in /  0mm
18:14 17.4 °F /  -8.1 °C 13.4 °F /  -10.3 °C 30.31in /  1026.3hPa SW 9.0mph /  14.5km/h 21.0mph /  33.8km/h 84% 0.00in /  0mm
18:19 17.5 °F /  -8.1 °C 13.5 °F /  -10.3 °C 30.31in /  1026.3hPa SW 9.0mph /  14.5km/h 21.0mph /  33.8km/h 84% 0.00in /  0mm
18:24 17.5 °F /  -8.1 °C 13.5 °F /  -10.3 °C 30.31in /  1026.3hPa SW 9.0mph /  14.5km/h 17.0mph /  27.4km/h 84% 0.00in /  0mm
18:29 17.7 °F /  -7.9 °C 13.7 °F /  -10.2 °C 30.31in /  1026.3hPa SW 10.0mph /  16.1km/h 17.0mph /  27.4km/h 84% 0.00in /  0mm
18:34 17.7 °F /  -7.9 °C 13.7 °F /  -10.2 °C 30.31in /  1026.3hPa SW 9.0mph /  14.5km/h 17.0mph /  27.4km/h 84% 0.00in /  0mm
18:39 17.8 °F /  -7.9 °C 13.8 °F /  -10.1 °C 30.30in /  1026hPa South 9.0mph /  14.5km/h 18.0mph /  29km/h 84% 0.00in /  0mm
18:44 17.9 °F /  -7.8 °C 13.9 °F /  -10.1 °C 30.30in /  1026hPa SW 9.0mph /  14.5km/h 20.0mph /  32.2km/h 84% 0.00in /  0mm
18:49 18.0 °F /  -7.8 °C 14.0 °F /  -10 °C 30.30in /  1026hPa WSW 12.0mph /  19.3km/h 17.0mph /  27.4km/h 84% 0.00in /  0mm
18:54 18.0 °F /  -7.8 °C 14.0 °F /  -10 °C 30.29in /  1025.6hPa SSW 8.0mph /  12.9km/h 16.0mph /  25.7km/h 84% 0.00in /  0mm
18:59 18.1 °F /  -7.7 °C 14.1 °F /  -9.9 °C 30.29in /  1025.6hPa SW 8.0mph /  12.9km/h 15.0mph /  24.1km/h 84% 0.00in /  0mm
19:04 18.0 °F /  -7.8 °C 14.0 °F /  -10 °C 30.29in /  1025.6hPa SSW 2.0mph /  3.2km/h 18.0mph /  29km/h 84% 0.00in /  0mm
19:09 18.0 °F /  -7.8 °C 13.7 °F /  -10.2 °C 30.29in /  1025.6hPa SSW 7.0mph /  11.3km/h 17.0mph /  27.4km/h 83% 0.00in /  0mm
19:14 17.6 °F /  -8 °C 13.0 °F /  -10.6 °C 30.28in /  1025.3hPa SSW 4.0mph /  6.4km/h 15.0mph /  24.1km/h 82% 0.00in /  0mm
19:19 17.5 °F /  -8.1 °C 12.9 °F /  -10.6 °C 30.29in /  1025.6hPa SW 7.0mph /  11.3km/h 15.0mph /  24.1km/h 82% 0.00in /  0mm
19:24 17.5 °F /  -8.1 °C 12.9 °F /  -10.6 °C 30.28in /  1025.3hPa SW 7.0mph /  11.3km/h 21.0mph /  33.8km/h 82% 0.00in /  0mm
19:29 17.5 °F /  -8.1 °C 12.7 °F /  -10.7 °C 30.28in /  1025.3hPa SW 8.0mph /  12.9km/h 21.0mph /  33.8km/h 81% 0.00in /  0mm
19:34 17.4 °F /  -8.1 °C 12.3 °F /  -10.9 °C 30.28in /  1025.3hPa SW 8.0mph /  12.9km/h 16.0mph /  25.7km/h 80% 0.00in /  0mm
19:39 17.4 °F /  -8.1 °C 12.0 °F /  -11.1 °C 30.28in /  1025.3hPa SSW 8.0mph /  12.9km/h 17.0mph /  27.4km/h 79% 0.00in /  0mm
19:44 17.3 °F /  -8.2 °C 11.6 °F /  -11.3 °C 30.27in /  1024.9hPa SSW 9.0mph /  14.5km/h 18.0mph /  29km/h 78% 0.00in /  0mm
19:49 17.3 °F /  -8.2 °C 11.6 °F /  -11.3 °C 30.27in /  1024.9hPa South 11.0mph /  17.7km/h 19.0mph /  30.6km/h 78% 0.00in /  0mm
19:54 17.0 °F /  -8.3 °C 11.0 °F /  -11.7 °C 30.27in /  1024.9hPa SW 6.0mph /  9.7km/h 17.0mph /  27.4km/h 77% 0.00in /  0mm
19:59 16.9 °F /  -8.4 °C 10.9 °F /  -11.7 °C 30.27in /  1024.9hPa SSW 8.0mph /  12.9km/h 17.0mph /  27.4km/h 77% 0.00in /  0mm
20:04 16.8 °F /  -8.4 °C 10.5 °F /  -11.9 °C 30.27in /  1024.9hPa SW 14.0mph /  22.5km/h 15.0mph /  24.1km/h 76% 0.00in /  0mm
20:09 16.6 °F /  -8.6 °C 10.3 °F /  -12.1 °C 30.26in /  1024.6hPa South 13.0mph /  20.9km/h 17.0mph /  27.4km/h 76% 0.00in /  0mm
20:14 16.4 °F /  -8.7 °C 10.2 °F /  -12.1 °C 30.26in /  1024.6hPa WSW 3.0mph /  4.8km/h 14.0mph /  22.5km/h 76% 0.00in /  0mm
20:19 16.2 °F /  -8.8 °C 10.0 °F /  -12.2 °C 30.26in /  1024.6hPa SW 6.0mph /  9.7km/h 15.0mph /  24.1km/h 76% 0.00in /  0mm
20:24 16.0 °F /  -8.9 °C 9.8 °F /  -12.3 °C 30.26in /  1024.6hPa SW 7.0mph /  11.3km/h 15.0mph /  24.1km/h 76% 0.00in /  0mm
20:29 15.9 °F /  -8.9 °C 9.7 °F /  -12.4 °C 30.26in /  1024.6hPa SW 7.0mph /  11.3km/h 15.0mph /  24.1km/h 76% 0.00in /  0mm
20:34 15.9 °F /  -8.9 °C 9.7 °F /  -12.4 °C 30.25in /  1024.3hPa SW 7.0mph /  11.3km/h 15.0mph /  24.1km/h 76% 0.00in /  0mm
20:39 15.9 °F /  -8.9 °C 9.7 °F /  -12.4 °C 30.25in /  1024.3hPa SW 7.0mph /  11.3km/h 15.0mph /  24.1km/h 76% 0.00in /  0mm
20:44 15.9 °F /  -8.9 °C 9.7 °F /  -12.4 °C 30.25in /  1024.3hPa SW 7.0mph /  11.3km/h 13.0mph /  20.9km/h 76% 0.00in /  0mm
20:49 15.8 °F /  -9 °C 9.6 °F /  -12.4 °C 30.25in /  1024.3hPa SSW 16.0mph /  25.7km/h 16.0mph /  25.7km/h 76% 0.00in /  0mm
20:54 15.7 °F /  -9.1 °C 9.5 °F /  -12.5 °C 30.25in /  1024.3hPa WSW 6.0mph /  9.7km/h 16.0mph /  25.7km/h 76% 0.00in /  0mm
20:59 15.6 °F /  -9.1 °C 9.4 °F /  -12.6 °C 30.25in /  1024.3hPa SW 7.0mph /  11.3km/h 16.0mph /  25.7km/h 76% 0.00in /  0mm
21:04 15.5 °F /  -9.2 °C 9.3 °F /  -12.6 °C 30.24in /  1023.9hPa SSW 12.0mph /  19.3km/h 14.0mph /  22.5km/h 76% 0.00in /  0mm
21:09 15.5 °F /  -9.2 °C 9.3 °F /  -12.6 °C 30.24in /  1023.9hPa SW 8.0mph /  12.9km/h 13.0mph /  20.9km/h 76% 0.00in /  0mm
21:14 15.5 °F /  -9.2 °C 9.3 °F /  -12.6 °C 30.24in /  1023.9hPa SW 12.0mph /  19.3km/h 15.0mph /  24.1km/h 76% 0.00in /  0mm
21:19 15.6 °F /  -9.1 °C 9.4 °F /  -12.6 °C 30.24in /  1023.9hPa South 6.0mph /  9.7km/h 16.0mph /  25.7km/h 76% 0.00in /  0mm
21:24 15.7 °F /  -9.1 °C 9.5 °F /  -12.5 °C 30.24in /  1023.9hPa SW 8.0mph /  12.9km/h 16.0mph /  25.7km/h 76% 0.00in /  0mm
21:29 15.8 °F /  -9 °C 9.6 °F /  -12.4 °C 30.24in /  1023.9hPa SSW 8.0mph /  12.9km/h 16.0mph /  25.7km/h 76% 0.00in /  0mm
21:34 15.9 °F /  -8.9 °C 9.7 °F /  -12.4 °C 30.24in /  1023.9hPa SW 7.0mph /  11.3km/h 14.0mph /  22.5km/h 76% 0.00in /  0mm
21:39 16.0 °F /  -8.9 °C 10.1 °F /  -12.2 °C 30.23in /  1023.6hPa SW 8.0mph /  12.9km/h 17.0mph /  27.4km/h 77% 0.00in /  0mm
21:44 16.1 °F /  -8.8 °C 10.2 °F /  -12.1 °C 30.23in /  1023.6hPa WSW 8.0mph /  12.9km/h 17.0mph /  27.4km/h 77% 0.00in /  0mm
21:49 16.1 °F /  -8.8 °C 10.2 °F /  -12.1 °C 30.22in /  1023.2hPa WSW 11.0mph /  17.7km/h 19.0mph /  30.6km/h 77% 0.00in /  0mm
21:54 16.1 °F /  -8.8 °C 10.2 °F /  -12.1 °C 30.22in /  1023.2hPa SW 10.0mph /  16.1km/h 18.0mph /  29km/h 77% 0.00in /  0mm
21:59 16.3 °F /  -8.7 °C 10.4 °F /  -12 °C 30.22in /  1023.2hPa SW 8.0mph /  12.9km/h 18.0mph /  29km/h 77% 0.00in /  0mm
22:04 16.6 °F /  -8.6 °C 10.9 °F /  -11.7 °C 30.22in /  1023.2hPa SW 9.0mph /  14.5km/h 17.0mph /  27.4km/h 78% 0.00in /  0mm
22:09 16.7 °F /  -8.5 °C 11.0 °F /  -11.7 °C 30.21in /  1022.9hPa SW 8.0mph /  12.9km/h 17.0mph /  27.4km/h 78% 0.00in /  0mm
22:14 16.8 °F /  -8.4 °C 11.1 °F /  -11.6 °C 30.21in /  1022.9hPa WSW 11.0mph /  17.7km/h 16.0mph /  25.7km/h 78% 0.00in /  0mm
22:19 16.8 °F /  -8.4 °C 11.1 °F /  -11.6 °C 30.21in /  1022.9hPa West 9.0mph /  14.5km/h 19.0mph /  30.6km/h 78% 0.00in /  0mm
22:24 16.8 °F /  -8.4 °C 11.1 °F /  -11.6 °C 30.21in /  1022.9hPa SW 10.0mph /  16.1km/h 15.0mph /  24.1km/h 78% 0.00in /  0mm
22:29 16.9 °F /  -8.4 °C 11.2 °F /  -11.6 °C 30.21in /  1022.9hPa SW 9.0mph /  14.5km/h 18.0mph /  29km/h 78% 0.00in /  0mm
22:34 17.0 °F /  -8.3 °C 11.3 °F /  -11.5 °C 30.20in /  1022.6hPa SW 9.0mph /  14.5km/h 18.0mph /  29km/h 78% 0.00in /  0mm
22:39 17.0 °F /  -8.3 °C 11.3 °F /  -11.5 °C 30.20in /  1022.6hPa SSW 11.0mph /  17.7km/h 19.0mph /  30.6km/h 78% 0.00in /  0mm
22:44 17.1 °F /  -8.3 °C 11.4 °F /  -11.4 °C 30.20in /  1022.6hPa SW 14.0mph /  22.5km/h 20.0mph /  32.2km/h 78% 0.00in /  0mm
22:49 17.1 °F /  -8.3 °C 11.7 °F /  -11.3 °C 30.20in /  1022.6hPa SW 7.0mph /  11.3km/h 18.0mph /  29km/h 79% 0.00in /  0mm
22:54 17.1 °F /  -8.3 °C 11.4 °F /  -11.4 °C 30.20in /  1022.6hPa SSE 8.0mph /  12.9km/h 19.0mph /  30.6km/h 78% 0.00in /  0mm
22:59 17.0 °F /  -8.3 °C 11.3 °F /  -11.5 °C 30.20in /  1022.6hPa SW 11.0mph /  17.7km/h 19.0mph /  30.6km/h 78% 0.00in /  0mm
23:04 16.9 °F /  -8.4 °C 11.2 °F /  -11.6 °C 30.19in /  1022.2hPa SW 10.0mph /  16.1km/h 19.0mph /  30.6km/h 78% 0.00in /  0mm
23:09 16.7 °F /  -8.5 °C 11.0 °F /  -11.7 °C 30.19in /  1022.2hPa SW 10.0mph /  16.1km/h 19.0mph /  30.6km/h 78% 0.00in /  0mm
23:14 16.5 °F /  -8.6 °C 10.8 °F /  -11.8 °C 30.19in /  1022.2hPa SW 10.0mph /  16.1km/h 20.0mph /  32.2km/h 78% 0.00in /  0mm
23:19 16.4 °F /  -8.7 °C 10.7 °F /  -11.8 °C 30.19in /  1022.2hPa SW 8.0mph /  12.9km/h 16.0mph /  25.7km/h 78% 0.00in /  0mm
23:24 16.2 °F /  -8.8 °C 10.5 °F /  -11.9 °C 30.18in /  1021.9hPa SSW 16.0mph /  25.7km/h 19.0mph /  30.6km/h 78% 0.00in /  0mm
23:29 16.2 °F /  -8.8 °C 10.8 °F /  -11.8 °C 30.19in /  1022.2hPa SW 9.0mph /  14.5km/h 20.0mph /  32.2km/h 79% 0.00in /  0mm
23:34 16.1 °F /  -8.8 °C 10.7 °F /  -11.8 °C 30.18in /  1021.9hPa SW 9.0mph /  14.5km/h 20.0mph /  32.2km/h 79% 0.00in /  0mm
23:39 15.9 °F /  -8.9 °C 10.3 °F /  -12.1 °C 30.18in /  1021.9hPa SW 9.0mph /  14.5km/h 21.0mph /  33.8km/h 78% 0.00in /  0mm
23:44 15.9 °F /  -8.9 °C 10.3 °F /  -12.1 °C 30.18in /  1021.9hPa SW 11.0mph /  17.7km/h 21.0mph /  33.8km/h 78% 0.00in /  0mm
23:49 15.8 °F /  -9 °C 10.2 °F /  -12.1 °C 30.18in /  1021.9hPa SW 11.0mph /  17.7km/h 21.0mph /  33.8km/h 78% 0.00in /  0mm
23:54 15.7 °F /  -9.1 °C 10.1 °F /  -12.2 °C 30.17in /  1021.6hPa SW 9.0mph /  14.5km/h 21.0mph /  33.8km/h 78% 0.00in /  0mm
23:59 15.5 °F /  -9.2 °C 9.6 °F /  -12.4 °C 30.17in /  1021.6hPa SW 13.0mph /  20.9km/h 17.0mph /  27.4km/h 77% 0.00in /  0mm
Buffalo, New York, USA
Compliments of Weather Underground - 2.25 mb